^^
Station Historical Data
Daily Summary for July 1, 2017 Units:  Both    English   Metric
« Previous Day
Next Day »
Daily Weekly Monthly Yearly Custom
  High: Low: Average:
Temperature: 73.9 °F /  23.3 °C 46.2 °F /  7.9 °C 58.3 °F /  14.6 °C
Dew Point: 38.5 °F /  3.6 °C 28.9 °F /  -1.7 °C 32 °F /  0 °C
Humidity: 58% 21% 39%
Wind Speed: 8.1mph /  13km/h - 0.8mph /  1.3km/h
Wind Gust: 15.0mph /  24.1km/h - -
Wind- - SW
Pressure: 30.39 in /  1029 hPa 30.28 in /  1025.3 hPa -
Precipitation: 0.00 in /  0 mm    
Historical Graphs
 
 
Tabular Data for July 1, 2017
Time Temperature Dew Point Pressure Wind Wind Speed Wind Gust Humidity Rainfall Rate (Hourly) solar Conditions
00:04 46.9 °F /  8.3 °C 32.9 °F /  0.5 °C 30.34in /  1027.3hPa East 0.9mph /  1.4km/h 2.0mph /  3.2km/h 58% 0.00in /  0mm 0.0 W/m2
00:10 46.9 °F /  8.3 °C 32.9 °F /  0.5 °C 30.34in /  1027.3hPa Calm   3.0mph /  4.8km/h 58% 0.00in /  0mm 0.0 W/m2
00:16 46.9 °F /  8.3 °C 32.9 °F /  0.5 °C 30.34in /  1027.3hPa East 0.9mph /  1.4km/h 4.0mph /  6.4km/h 58% 0.00in /  0mm 0.0 W/m2
00:22 46.9 °F /  8.3 °C 32.5 °F /  0.3 °C 30.34in /  1027.3hPa ESE 2.0mph /  3.2km/h 4.0mph /  6.4km/h 57% 0.00in /  0mm 0.0 W/m2
00:29 46.9 °F /  8.3 °C 32.9 °F /  0.5 °C 30.34in /  1027.3hPa Calm   2.0mph /  3.2km/h 58% 0.00in /  0mm 0.0 W/m2
00:35 46.8 °F /  8.2 °C 32.7 °F /  0.4 °C 30.35in /  1027.7hPa Calm   1.0mph /  1.6km/h 58% 0.00in /  0mm 0.0 W/m2
00:41 46.6 °F /  8.1 °C 32.5 °F /  0.3 °C 30.35in /  1027.7hPa Calm   1.0mph /  1.6km/h 58% 0.00in /  0mm 0.0 W/m2
00:47 46.2 °F /  7.9 °C 32.2 °F /  0.1 °C 30.34in /  1027.3hPa Calm   1.0mph /  1.6km/h 58% 0.00in /  0mm 0.0 W/m2
00:53 46.2 °F /  7.9 °C 32.2 °F /  0.1 °C 30.35in /  1027.7hPa ESE 0.9mph /  1.4km/h 2.0mph /  3.2km/h 58% 0.00in /  0mm 0.0 W/m2
01:00 46.6 °F /  8.1 °C 32.5 °F /  0.3 °C 30.35in /  1027.7hPa Calm   1.0mph /  1.6km/h 58% 0.00in /  0mm 0.0 W/m2
01:06 46.6 °F /  8.1 °C 32.2 °F /  0.1 °C 30.35in /  1027.7hPa Calm     57% 0.00in /  0mm 0.0 W/m2
01:12 46.2 °F /  7.9 °C 32.2 °F /  0.1 °C 30.35in /  1027.7hPa Calm   3.0mph /  4.8km/h 58% 0.00in /  0mm 0.0 W/m2
01:18 46.2 °F /  7.9 °C 32.2 °F /  0.1 °C 30.35in /  1027.7hPa ESE 2.0mph /  3.2km/h 3.0mph /  4.8km/h 58% 0.00in /  0mm 0.0 W/m2
01:24 46.6 °F /  8.1 °C 32.2 °F /  0.1 °C 30.35in /  1027.7hPa Calm   1.0mph /  1.6km/h 57% 0.00in /  0mm 0.0 W/m2
01:30 46.6 °F /  8.1 °C 32.2 °F /  0.1 °C 30.35in /  1027.7hPa Calm   1.0mph /  1.6km/h 57% 0.00in /  0mm 0.0 W/m2
01:36 46.6 °F /  8.1 °C 32.2 °F /  0.1 °C 30.36in /  1028hPa Calm   4.0mph /  6.4km/h 57% 0.00in /  0mm 5.0 W/m2
01:42 46.6 °F /  8.1 °C 32.2 °F /  0.1 °C 30.36in /  1028hPa Calm   1.0mph /  1.6km/h 57% 0.00in /  0mm 7.0 W/m2
01:49 46.4 °F /  8 °C 32.0 °F /  0 °C 30.36in /  1028hPa Calm     57% 0.00in /  0mm 11.0 W/m2
01:55 46.4 °F /  8 °C 32.0 °F /  0 °C 30.36in /  1028hPa ENE 0.9mph /  1.4km/h 3.0mph /  4.8km/h 57% 0.00in /  0mm 12.0 W/m2
02:01 46.4 °F /  8 °C 32.0 °F /  0 °C 30.37in /  1028.3hPa Calm   2.0mph /  3.2km/h 57% 0.00in /  0mm 16.0 W/m2
02:07 46.6 °F /  8.1 °C 32.2 °F /  0.1 °C 30.37in /  1028.3hPa Calm   1.0mph /  1.6km/h 57% 0.00in /  0mm 18.0 W/m2
02:13 46.6 °F /  8.1 °C 32.5 °F /  0.3 °C 30.37in /  1028.3hPa SE 2.0mph /  3.2km/h 2.0mph /  3.2km/h 58% 0.00in /  0mm 19.0 W/m2
02:19 46.8 °F /  8.2 °C 32.7 °F /  0.4 °C 30.37in /  1028.3hPa Calm   1.0mph /  1.6km/h 58% 0.00in /  0mm 23.0 W/m2
02:26 46.8 °F /  8.2 °C 32.7 °F /  0.4 °C 30.37in /  1028.3hPa Calm   1.0mph /  1.6km/h 58% 0.00in /  0mm 25.0 W/m2
02:32 46.9 °F /  8.3 °C 32.9 °F /  0.5 °C 30.37in /  1028.3hPa Calm   1.0mph /  1.6km/h 58% 0.00in /  0mm 26.0 W/m2
02:38 47.1 °F /  8.4 °C 33.1 °F /  0.6 °C 30.37in /  1028.3hPa ENE 0.9mph /  1.4km/h 2.0mph /  3.2km/h 58% 0.00in /  0mm 28.0 W/m2
02:44 47.5 °F /  8.6 °C 33.4 °F /  0.8 °C 30.37in /  1028.3hPa East 0.9mph /  1.4km/h 3.0mph /  4.8km/h 58% 0.00in /  0mm 30.0 W/m2
02:50 48.4 °F /  9.1 °C 33.4 °F /  0.8 °C 30.37in /  1028.3hPa ENE 2.9mph /  4.7km/h 4.0mph /  6.4km/h 56% 0.00in /  0mm 32.0 W/m2
02:56 50.2 °F /  10.1 °C 34.7 °F /  1.5 °C 30.38in /  1028.7hPa ENE 0.9mph /  1.4km/h 3.0mph /  4.8km/h 55% 0.00in /  0mm 67.0 W/m2
03:02 52.2 °F /  11.2 °C 35.1 °F /  1.7 °C 30.37in /  1028.3hPa NE 2.0mph /  3.2km/h 2.0mph /  3.2km/h 52% 0.00in /  0mm 246.0 W/m2
03:09 54.1 °F /  12.3 °C 36.0 °F /  2.2 °C 30.38in /  1028.7hPa Calm     50% 0.00in /  0mm 274.0 W/m2
03:14 55.2 °F /  12.9 °C 36.0 °F /  2.2 °C 30.38in /  1028.7hPa Calm     48% 0.00in /  0mm 283.0 W/m2
03:21 57.6 °F /  14.2 °C 36.9 °F /  2.7 °C 30.38in /  1028.7hPa Calm   2.0mph /  3.2km/h 46% 0.00in /  0mm 309.0 W/m2
03:27 59.0 °F /  15 °C 36.5 °F /  2.5 °C 30.39in /  1029hPa Calm   1.0mph /  1.6km/h 43% 0.00in /  0mm 329.0 W/m2
03:33 60.6 °F /  15.9 °C 36.9 °F /  2.7 °C 30.39in /  1029hPa NE 2.0mph /  3.2km/h 4.0mph /  6.4km/h 41% 0.00in /  0mm 348.0 W/m2
03:39 62.2 °F /  16.8 °C 37.6 °F /  3.1 °C 30.39in /  1029hPa Calm   1.0mph /  1.6km/h 40% 0.00in /  0mm 369.0 W/m2
03:45 63.7 °F /  17.6 °C 36.9 °F /  2.7 °C 30.39in /  1029hPa Calm     37% 0.00in /  0mm 388.0 W/m2
03:52 64.6 °F /  18.1 °C 37.8 °F /  3.2 °C 30.38in /  1028.7hPa Calm   2.0mph /  3.2km/h 37% 0.00in /  0mm 406.0 W/m2
03:58 65.5 °F /  18.6 °C 38.5 °F /  3.6 °C 30.38in /  1028.7hPa Calm   1.0mph /  1.6km/h 37% 0.00in /  0mm 424.0 W/m2
04:04 65.8 °F /  18.8 °C 37.4 °F /  3 °C 30.39in /  1029hPa Calm   2.0mph /  3.2km/h 35% 0.00in /  0mm 441.0 W/m2
04:10 66.6 °F /  19.2 °C 37.4 °F /  3 °C 30.38in /  1028.7hPa Calm     34% 0.00in /  0mm 457.0 W/m2
04:16 67.1 °F /  19.5 °C 37.0 °F /  2.8 °C 30.38in /  1028.7hPa Calm   2.0mph /  3.2km/h 33% 0.00in /  0mm 471.0 W/m2
04:22 67.5 °F /  19.7 °C 38.1 °F /  3.4 °C 30.38in /  1028.7hPa Calm   1.0mph /  1.6km/h 34% 0.00in /  0mm 489.0 W/m2
04:28 67.8 °F /  19.9 °C 37.6 °F /  3.1 °C 30.38in /  1028.7hPa NNW 2.0mph /  3.2km/h 2.0mph /  3.2km/h 33% 0.00in /  0mm 503.0 W/m2
04:34 68.4 °F /  20.2 °C 37.4 °F /  3 °C 30.38in /  1028.7hPa NW 0.9mph /  1.4km/h 1.0mph /  1.6km/h 32% 0.00in /  0mm 515.0 W/m2
04:41 68.4 °F /  20.2 °C 38.1 °F /  3.4 °C 30.38in /  1028.7hPa NNW 2.9mph /  4.7km/h 4.0mph /  6.4km/h 33% 0.00in /  0mm 531.0 W/m2
04:47 68.7 °F /  20.4 °C 38.5 °F /  3.6 °C 30.38in /  1028.7hPa Calm   2.0mph /  3.2km/h 33% 0.00in /  0mm 541.0 W/m2
04:53 69.1 °F /  20.6 °C 37.9 °F /  3.3 °C 30.38in /  1028.7hPa North 0.9mph /  1.4km/h 3.0mph /  4.8km/h 32% 0.00in /  0mm 555.0 W/m2
04:59 69.1 °F /  20.6 °C 37.9 °F /  3.3 °C 30.37in /  1028.3hPa Calm   2.0mph /  3.2km/h 32% 0.00in /  0mm 568.0 W/m2
05:05 69.3 °F /  20.7 °C 38.1 °F /  3.4 °C 30.38in /  1028.7hPa Calm   5.0mph /  8km/h 32% 0.00in /  0mm 578.0 W/m2
05:11 69.4 °F /  20.8 °C 38.3 °F /  3.5 °C 30.37in /  1028.3hPa NW 2.0mph /  3.2km/h 5.0mph /  8km/h 32% 0.00in /  0mm 587.0 W/m2
05:17 69.6 °F /  20.9 °C 37.6 °F /  3.1 °C 30.38in /  1028.7hPa Calm   6.0mph /  9.7km/h 31% 0.00in /  0mm 599.0 W/m2
05:24 70.0 °F /  21.1 °C 37.9 °F /  3.3 °C 30.38in /  1028.7hPa Calm   3.0mph /  4.8km/h 31% 0.00in /  0mm 608.0 W/m2
05:29 70.2 °F /  21.2 °C 37.2 °F /  2.9 °C 30.37in /  1028.3hPa Calm   7.0mph /  11.3km/h 30% 0.00in /  0mm 622.0 W/m2
05:36 70.7 °F /  21.5 °C 37.8 °F /  3.2 °C 30.37in /  1028.3hPa Calm   3.0mph /  4.8km/h 30% 0.00in /  0mm 628.0 W/m2
05:42 71.1 °F /  21.7 °C 38.1 °F /  3.4 °C 30.37in /  1028.3hPa NNW 4.0mph /  6.4km/h 4.0mph /  6.4km/h 30% 0.00in /  0mm 631.0 W/m2
05:48 71.4 °F /  21.9 °C 37.6 °F /  3.1 °C 30.37in /  1028.3hPa North 2.9mph /  4.7km/h 6.0mph /  9.7km/h 29% 0.00in /  0mm 640.0 W/m2
05:50 71.4 °F /  21.9 °C 36.7 °F /  2.6 °C 30.37in /  1028.3hPa NW 4.0mph /  6.4km/h 5.0mph /  8km/h 28% 0.00in /  0mm 640.0 W/m2
05:56 71.8 °F /  22.1 °C 37.8 °F /  3.2 °C 30.37in /  1028.3hPa NE 2.9mph /  4.7km/h 6.0mph /  9.7km/h 29% 0.00in /  0mm 645.0 W/m2
06:02 72.0 °F /  22.2 °C 37.0 °F /  2.8 °C 30.36in /  1028hPa North 6.9mph /  11.1km/h 7.0mph /  11.3km/h 28% 0.00in /  0mm 652.0 W/m2
06:08 72.1 °F /  22.3 °C 37.2 °F /  2.9 °C 30.36in /  1028hPa Calm   3.0mph /  4.8km/h 28% 0.00in /  0mm 661.0 W/m2
06:14 72.3 °F /  22.4 °C 36.5 °F /  2.5 °C 30.36in /  1028hPa NNW 4.0mph /  6.4km/h 8.0mph /  12.9km/h 27% 0.00in /  0mm 657.0 W/m2
06:20 72.3 °F /  22.4 °C 36.5 °F /  2.5 °C 30.35in /  1027.7hPa North 2.0mph /  3.2km/h 6.0mph /  9.7km/h 27% 0.00in /  0mm 661.0 W/m2
06:27 72.7 °F /  22.6 °C 36.9 °F /  2.7 °C 30.35in /  1027.7hPa NNW 2.9mph /  4.7km/h 5.0mph /  8km/h 27% 0.00in /  0mm 661.0 W/m2
06:35 72.9 °F /  22.7 °C 36.9 °F /  2.7 °C 30.34in /  1027.3hPa North 0.9mph /  1.4km/h 4.0mph /  6.4km/h 27% 0.00in /  0mm 671.0 W/m2
06:41 72.9 °F /  22.7 °C 36.0 °F /  2.2 °C 30.34in /  1027.3hPa NNW 6.0mph /  9.7km/h 9.0mph /  14.5km/h 26% 0.00in /  0mm 670.0 W/m2
06:47 72.9 °F /  22.7 °C 36.0 °F /  2.2 °C 30.34in /  1027.3hPa SW 0.9mph /  1.4km/h 8.0mph /  12.9km/h 26% 0.00in /  0mm 668.0 W/m2
06:53 73.0 °F /  22.8 °C 37.0 °F /  2.8 °C 30.34in /  1027.3hPa NNW 2.9mph /  4.7km/h 5.0mph /  8km/h 27% 0.00in /  0mm 666.0 W/m2
06:59 73.0 °F /  22.8 °C 35.1 °F /  1.7 °C 30.33in /  1027hPa West 6.0mph /  9.7km/h 8.0mph /  12.9km/h 25% 0.00in /  0mm 668.0 W/m2
07:05 72.9 °F /  22.7 °C 36.0 °F /  2.2 °C 30.33in /  1027hPa NW 0.9mph /  1.4km/h 8.0mph /  12.9km/h 26% 0.00in /  0mm 666.0 W/m2
07:12 72.9 °F /  22.7 °C 36.0 °F /  2.2 °C 30.33in /  1027hPa Calm   6.0mph /  9.7km/h 26% 0.00in /  0mm 657.0 W/m2
07:18 72.7 °F /  22.6 °C 35.8 °F /  2.1 °C 30.33in /  1027hPa Calm   6.0mph /  9.7km/h 26% 0.00in /  0mm 657.0 W/m2
07:24 73.0 °F /  22.8 °C 35.1 °F /  1.7 °C 30.32in /  1026.6hPa South 2.0mph /  3.2km/h 8.0mph /  12.9km/h 25% 0.00in /  0mm 656.0 W/m2
07:30 73.2 °F /  22.9 °C 35.2 °F /  1.8 °C 30.32in /  1026.6hPa North 2.0mph /  3.2km/h 7.0mph /  11.3km/h 25% 0.00in /  0mm 650.0 W/m2
07:36 73.6 °F /  23.1 °C 34.5 °F /  1.4 °C 30.32in /  1026.6hPa WNW 0.9mph /  1.4km/h 7.0mph /  11.3km/h 24% 0.00in /  0mm 647.0 W/m2
07:42 73.6 °F /  23.1 °C 34.5 °F /  1.4 °C 30.31in /  1026.3hPa North 4.9mph /  7.9km/h 13.0mph /  20.9km/h 24% 0.00in /  0mm 633.0 W/m2
07:48 73.4 °F /  23 °C 35.4 °F /  1.9 °C 30.31in /  1026.3hPa Calm   6.0mph /  9.7km/h 25% 0.00in /  0mm 624.0 W/m2
07:54 73.4 °F /  23 °C 35.4 °F /  1.9 °C 30.31in /  1026.3hPa NNW 2.9mph /  4.7km/h 6.0mph /  9.7km/h 25% 0.00in /  0mm 631.0 W/m2
08:00 73.4 °F /  23 °C 32.2 °F /  0.1 °C 30.30in /  1026hPa NNW 6.0mph /  9.7km/h 9.0mph /  14.5km/h 22% 0.00in /  0mm 629.0 W/m2
08:07 73.6 °F /  23.1 °C 31.3 °F /  -0.4 °C 30.30in /  1026hPa NNW 8.1mph /  13km/h 9.0mph /  14.5km/h 21% 0.00in /  0mm 624.0 W/m2
08:13 73.8 °F /  23.2 °C 32.5 °F /  0.3 °C 30.30in /  1026hPa NNW 0.9mph /  1.4km/h 4.0mph /  6.4km/h 22% 0.00in /  0mm 610.0 W/m2
08:19 73.9 °F /  23.3 °C 31.5 °F /  -0.3 °C 30.30in /  1026hPa NW 6.9mph /  11.1km/h 10.0mph /  16.1km/h 21% 0.00in /  0mm 606.0 W/m2
08:25 73.9 °F /  23.3 °C 31.5 °F /  -0.3 °C 30.30in /  1026hPa West 4.9mph /  7.9km/h 7.0mph /  11.3km/h 21% 0.00in /  0mm 599.0 W/m2
08:31 73.8 °F /  23.2 °C 31.5 °F /  -0.3 °C 30.29in /  1025.6hPa WNW 0.9mph /  1.4km/h 7.0mph /  11.3km/h 21% 0.00in /  0mm 584.0 W/m2
08:37 73.8 °F /  23.2 °C 31.5 °F /  -0.3 °C 30.29in /  1025.6hPa Calm   1.0mph /  1.6km/h 21% 0.00in /  0mm 571.0 W/m2
08:42 73.8 °F /  23.2 °C 31.5 °F /  -0.3 °C 30.29in /  1025.6hPa North 2.9mph /  4.7km/h 9.0mph /  14.5km/h 21% 0.00in /  0mm 563.0 W/m2
08:49 73.8 °F /  23.2 °C 31.5 °F /  -0.3 °C 30.29in /  1025.6hPa West 4.9mph /  7.9km/h 7.0mph /  11.3km/h 21% 0.00in /  0mm 554.0 W/m2
08:55 73.9 °F /  23.3 °C 31.5 °F /  -0.3 °C 30.29in /  1025.6hPa NNW 2.0mph /  3.2km/h 7.0mph /  11.3km/h 21% 0.00in /  0mm 538.0 W/m2
09:01 73.9 °F /  23.3 °C 31.5 °F /  -0.3 °C 30.29in /  1025.6hPa North 4.9mph /  7.9km/h 9.0mph /  14.5km/h 21% 0.00in /  0mm 526.0 W/m2
09:07 73.8 °F /  23.2 °C 31.5 °F /  -0.3 °C 30.29in /  1025.6hPa West 2.0mph /  3.2km/h 7.0mph /  11.3km/h 21% 0.00in /  0mm 510.0 W/m2
09:13 73.6 °F /  23.1 °C 31.3 °F /  -0.4 °C 30.29in /  1025.6hPa West 2.9mph /  4.7km/h 7.0mph /  11.3km/h 21% 0.00in /  0mm 497.0 W/m2
09:19 73.6 °F /  23.1 °C 31.3 °F /  -0.4 °C 30.28in /  1025.3hPa Calm   1.0mph /  1.6km/h 21% 0.00in /  0mm 485.0 W/m2
09:25 73.6 °F /  23.1 °C 31.3 °F /  -0.4 °C 30.28in /  1025.3hPa Calm   9.0mph /  14.5km/h 21% 0.00in /  0mm 469.0 W/m2
09:31 73.8 °F /  23.2 °C 32.5 °F /  0.3 °C 30.28in /  1025.3hPa NNW 8.1mph /  13km/h 13.0mph /  20.9km/h 22% 0.00in /  0mm 454.0 W/m2
09:37 73.4 °F /  23 °C 32.2 °F /  0.1 °C 30.28in /  1025.3hPa WNW 0.9mph /  1.4km/h 15.0mph /  24.1km/h 22% 0.00in /  0mm 436.0 W/m2
09:43 73.6 °F /  23.1 °C 31.3 °F /  -0.4 °C 30.28in /  1025.3hPa NNW 2.9mph /  4.7km/h 6.0mph /  9.7km/h 21% 0.00in /  0mm 425.0 W/m2
09:49 73.6 °F /  23.1 °C 32.4 °F /  0.2 °C 30.28in /  1025.3hPa Calm   4.0mph /  6.4km/h 22% 0.00in /  0mm 411.0 W/m2
09:55 73.6 °F /  23.1 °C 32.4 °F /  0.2 °C 30.28in /  1025.3hPa NW 0.9mph /  1.4km/h 3.0mph /  4.8km/h 22% 0.00in /  0mm 392.0 W/m2
10:07 73.2 °F /  22.9 °C 32.2 °F /  0.1 °C 30.28in /  1025.3hPa NW 2.0mph /  3.2km/h 8.0mph /  12.9km/h 22% 0.00in /  0mm 359.0 W/m2
10:13 73.0 °F /  22.8 °C 32.0 °F /  0 °C 30.28in /  1025.3hPa West 0.9mph /  1.4km/h 4.0mph /  6.4km/h 22% 0.00in /  0mm 341.0 W/m2
10:19 72.9 °F /  22.7 °C 31.8 °F /  -0.1 °C 30.28in /  1025.3hPa Calm   1.0mph /  1.6km/h 22% 0.00in /  0mm 322.0 W/m2
10:25 72.7 °F /  22.6 °C 31.6 °F /  -0.2 °C 30.28in /  1025.3hPa NW 2.9mph /  4.7km/h 7.0mph /  11.3km/h 22% 0.00in /  0mm 53.0 W/m2
10:31 72.1 °F /  22.3 °C 31.1 °F /  -0.5 °C 30.28in /  1025.3hPa NW 0.9mph /  1.4km/h 1.0mph /  1.6km/h 22% 0.00in /  0mm 47.0 W/m2
10:37 71.8 °F /  22.1 °C 32.0 °F /  0 °C 30.28in /  1025.3hPa NNW 2.9mph /  4.7km/h 3.0mph /  4.8km/h 23% 0.00in /  0mm 46.0 W/m2
10:43 71.4 °F /  21.9 °C 31.6 °F /  -0.2 °C 30.28in /  1025.3hPa Calm   2.0mph /  3.2km/h 23% 0.00in /  0mm 44.0 W/m2
10:49 71.2 °F /  21.8 °C 31.5 °F /  -0.3 °C 30.28in /  1025.3hPa NNW 2.0mph /  3.2km/h 6.0mph /  9.7km/h 23% 0.00in /  0mm 42.0 W/m2
10:55 71.1 °F /  21.7 °C 31.5 °F /  -0.3 °C 30.28in /  1025.3hPa NNW 0.9mph /  1.4km/h 5.0mph /  8km/h 23% 0.00in /  0mm 40.0 W/m2
11:01 70.7 °F /  21.5 °C 31.1 °F /  -0.5 °C 30.28in /  1025.3hPa WNW 4.0mph /  6.4km/h 6.0mph /  9.7km/h 23% 0.00in /  0mm 37.0 W/m2
11:07 70.5 °F /  21.4 °C 30.9 °F /  -0.6 °C 30.29in /  1025.6hPa NNW 4.9mph /  7.9km/h 8.0mph /  12.9km/h 23% 0.00in /  0mm 33.0 W/m2
11:14 70.2 °F /  21.2 °C 30.6 °F /  -0.8 °C 30.28in /  1025.3hPa NW 4.9mph /  7.9km/h 7.0mph /  11.3km/h 23% 0.00in /  0mm 28.0 W/m2
11:20 70.0 °F /  21.1 °C 30.6 °F /  -0.8 °C 30.29in /  1025.6hPa NNW 0.9mph /  1.4km/h 5.0mph /  8km/h 23% 0.00in /  0mm 26.0 W/m2
11:26 69.6 °F /  20.9 °C 31.3 °F /  -0.4 °C 30.29in /  1025.6hPa Calm   1.0mph /  1.6km/h 24% 0.00in /  0mm 23.0 W/m2
11:34 69.4 °F /  20.8 °C 31.1 °F /  -0.5 °C 30.29in /  1025.6hPa Calm   2.0mph /  3.2km/h 24% 0.00in /  0mm 23.0 W/m2
11:40 69.1 °F /  20.6 °C 31.8 °F /  -0.1 °C 30.29in /  1025.6hPa Calm   2.0mph /  3.2km/h 25% 0.00in /  0mm 19.0 W/m2
11:48 68.5 °F /  20.3 °C 31.3 °F /  -0.4 °C 30.29in /  1025.6hPa Calm   1.0mph /  1.6km/h 25% 0.00in /  0mm 18.0 W/m2
11:54 68.2 °F /  20.1 °C 31.1 °F /  -0.5 °C 30.29in /  1025.6hPa Calm   2.0mph /  3.2km/h 25% 0.00in /  0mm 14.0 W/m2
12:00 67.8 °F /  19.9 °C 30.7 °F /  -0.7 °C 30.29in /  1025.6hPa Calm   1.0mph /  1.6km/h 25% 0.00in /  0mm 12.0 W/m2
12:06 67.5 °F /  19.7 °C 31.5 °F /  -0.3 °C 30.29in /  1025.6hPa Calm   2.0mph /  3.2km/h 26% 0.00in /  0mm 9.0 W/m2
12:12 67.1 °F /  19.5 °C 32.0 °F /  0 °C 30.30in /  1026hPa Calm     27% 0.00in /  0mm 7.0 W/m2
12:18 66.6 °F /  19.2 °C 31.5 °F /  -0.3 °C 30.30in /  1026hPa Calm     27% 0.00in /  0mm 0.0 W/m2
12:20 66.6 °F /  19.2 °C 32.4 °F /  0.2 °C 30.30in /  1026hPa Calm     28% 0.00in /  0mm 0.0 W/m2
12:26 65.8 °F /  18.8 °C 31.8 °F /  -0.1 °C 30.30in /  1026hPa Calm     28% 0.00in /  0mm 0.0 W/m2
12:32 65.1 °F /  18.4 °C 31.3 °F /  -0.4 °C 30.30in /  1026hPa Calm     28% 0.00in /  0mm 0.0 W/m2
12:38 64.4 °F /  18 °C 31.5 °F /  -0.3 °C 30.30in /  1026hPa Calm     29% 0.00in /  0mm 0.0 W/m2
12:44 63.7 °F /  17.6 °C 31.6 °F /  -0.2 °C 30.30in /  1026hPa Calm     30% 0.00in /  0mm 0.0 W/m2
12:50 63.0 °F /  17.2 °C 31.1 °F /  -0.5 °C 30.30in /  1026hPa Calm     30% 0.00in /  0mm 0.0 W/m2
12:56 62.1 °F /  16.7 °C 31.1 °F /  -0.5 °C 30.31in /  1026.3hPa Calm     31% 0.00in /  0mm 0.0 W/m2
13:02 61.3 °F /  16.3 °C 30.4 °F /  -0.9 °C 30.31in /  1026.3hPa Calm   2.0mph /  3.2km/h 31% 0.00in /  0mm 0.0 W/m2
13:08 60.8 °F /  16 °C 30.7 °F /  -0.7 °C 30.31in /  1026.3hPa Calm     32% 0.00in /  0mm 0.0 W/m2
13:14 60.3 °F /  15.7 °C 31.1 °F /  -0.5 °C 30.31in /  1026.3hPa Calm     33% 0.00in /  0mm 0.0 W/m2
13:20 59.7 °F /  15.4 °C 30.6 °F /  -0.8 °C 30.32in /  1026.6hPa Calm     33% 0.00in /  0mm 0.0 W/m2
13:26 59.2 °F /  15.1 °C 30.7 °F /  -0.7 °C 30.32in /  1026.6hPa Calm     34% 0.00in /  0mm 0.0 W/m2
13:32 58.6 °F /  14.8 °C 30.4 °F /  -0.9 °C 30.32in /  1026.6hPa Calm     34% 0.00in /  0mm 0.0 W/m2
13:38 58.1 °F /  14.5 °C 30.6 °F /  -0.8 °C 30.32in /  1026.6hPa Calm     35% 0.00in /  0mm 0.0 W/m2
13:44 57.6 °F /  14.2 °C 30.0 °F /  -1.1 °C 30.32in /  1026.6hPa Calm     35% 0.00in /  0mm 0.0 W/m2
13:50 57.0 °F /  13.9 °C 30.4 °F /  -0.9 °C 30.32in /  1026.6hPa Calm     36% 0.00in /  0mm 0.0 W/m2
13:56 56.8 °F /  13.8 °C 30.2 °F /  -1 °C 30.33in /  1027hPa Calm     36% 0.00in /  0mm 0.0 W/m2
14:02 56.5 °F /  13.6 °C 30.6 °F /  -0.8 °C 30.33in /  1027hPa Calm     37% 0.00in /  0mm 0.0 W/m2
14:08 55.9 °F /  13.3 °C 30.0 °F /  -1.1 °C 30.33in /  1027hPa Calm     37% 0.00in /  0mm 0.0 W/m2
14:14 55.6 °F /  13.1 °C 30.4 °F /  -0.9 °C 30.33in /  1027hPa Calm     38% 0.00in /  0mm 0.0 W/m2
14:20 55.0 °F /  12.8 °C 29.8 °F /  -1.2 °C 30.33in /  1027hPa Calm   1.0mph /  1.6km/h 38% 0.00in /  0mm 0.0 W/m2
14:26 54.9 °F /  12.7 °C 29.7 °F /  -1.3 °C 30.33in /  1027hPa Calm   2.0mph /  3.2km/h 38% 0.00in /  0mm 0.0 W/m2
14:32 54.9 °F /  12.7 °C 29.7 °F /  -1.3 °C 30.33in /  1027hPa Calm   1.0mph /  1.6km/h 38% 0.00in /  0mm 0.0 W/m2
14:38 54.9 °F /  12.7 °C 29.7 °F /  -1.3 °C 30.33in /  1027hPa Calm     38% 0.00in /  0mm 0.0 W/m2
14:44 54.5 °F /  12.5 °C 30.0 °F /  -1.1 °C 30.33in /  1027hPa Calm   1.0mph /  1.6km/h 39% 0.00in /  0mm 0.0 W/m2
14:50 54.1 °F /  12.3 °C 29.7 °F /  -1.3 °C 30.33in /  1027hPa Calm     39% 0.00in /  0mm 0.0 W/m2
14:56 54.0 °F /  12.2 °C 30.2 °F /  -1 °C 30.33in /  1027hPa Calm     40% 0.00in /  0mm 0.0 W/m2
15:02 53.6 °F /  12 °C 29.8 °F /  -1.2 °C 30.33in /  1027hPa Calm     40% 0.00in /  0mm 0.0 W/m2
15:08 53.2 °F /  11.8 °C 29.5 °F /  -1.4 °C 30.34in /  1027.3hPa Calm     40% 0.00in /  0mm 0.0 W/m2
15:14 53.1 °F /  11.7 °C 29.3 °F /  -1.5 °C 30.33in /  1027hPa Calm     40% 0.00in /  0mm 0.0 W/m2
15:20 53.2 °F /  11.8 °C 29.5 °F /  -1.4 °C 30.34in /  1027.3hPa Calm   1.0mph /  1.6km/h 40% 0.00in /  0mm 0.0 W/m2
15:26 53.4 °F /  11.9 °C 29.7 °F /  -1.3 °C 30.34in /  1027.3hPa Calm   2.0mph /  3.2km/h 40% 0.00in /  0mm 0.0 W/m2
15:32 53.4 °F /  11.9 °C 29.7 °F /  -1.3 °C 30.34in /  1027.3hPa Calm     40% 0.00in /  0mm 0.0 W/m2
15:38 53.2 °F /  11.8 °C 29.5 °F /  -1.4 °C 30.33in /  1027hPa Calm   2.0mph /  3.2km/h 40% 0.00in /  0mm 0.0 W/m2
15:44 53.1 °F /  11.7 °C 29.3 °F /  -1.5 °C 30.33in /  1027hPa Calm   1.0mph /  1.6km/h 40% 0.00in /  0mm 0.0 W/m2
15:50 53.1 °F /  11.7 °C 29.3 °F /  -1.5 °C 30.33in /  1027hPa SE 0.9mph /  1.4km/h 1.0mph /  1.6km/h 40% 0.00in /  0mm 0.0 W/m2
15:56 53.4 °F /  11.9 °C 29.7 °F /  -1.3 °C 30.33in /  1027hPa Calm     40% 0.00in /  0mm 0.0 W/m2
16:02 53.1 °F /  11.7 °C 29.3 °F /  -1.5 °C 30.33in /  1027hPa East 0.9mph /  1.4km/h 2.0mph /  3.2km/h 40% 0.00in /  0mm 0.0 W/m2
16:09 52.9 °F /  11.6 °C 29.3 °F /  -1.5 °C 30.33in /  1027hPa Calm   1.0mph /  1.6km/h 40% 0.00in /  0mm 0.0 W/m2
16:14 52.7 °F /  11.5 °C 29.1 °F /  -1.6 °C 30.34in /  1027.3hPa Calm   2.0mph /  3.2km/h 40% 0.00in /  0mm 0.0 W/m2
16:21 52.5 °F /  11.4 °C 29.5 °F /  -1.4 °C 30.34in /  1027.3hPa Calm   1.0mph /  1.6km/h 41% 0.00in /  0mm 0.0 W/m2
16:27 52.3 °F /  11.3 °C 29.3 °F /  -1.5 °C 30.34in /  1027.3hPa Calm   3.0mph /  4.8km/h 41% 0.00in /  0mm 0.0 W/m2
16:33 52.2 °F /  11.2 °C 29.1 °F /  -1.6 °C 30.34in /  1027.3hPa Calm   1.0mph /  1.6km/h 41% 0.00in /  0mm 0.0 W/m2
16:39 52.2 °F /  11.2 °C 29.1 °F /  -1.6 °C 30.34in /  1027.3hPa East 2.9mph /  4.7km/h 3.0mph /  4.8km/h 41% 0.00in /  0mm 0.0 W/m2
16:45 52.2 °F /  11.2 °C 29.1 °F /  -1.6 °C 30.34in /  1027.3hPa Calm   1.0mph /  1.6km/h 41% 0.00in /  0mm 0.0 W/m2
16:51 52.0 °F /  11.1 °C 28.9 °F /  -1.7 °C 30.34in /  1027.3hPa Calm   2.0mph /  3.2km/h 41% 0.00in /  0mm 0.0 W/m2
16:57 51.6 °F /  10.9 °C 29.3 °F /  -1.5 °C 30.34in /  1027.3hPa Calm     42% 0.00in /  0mm 0.0 W/m2
17:03 51.6 °F /  10.9 °C 29.3 °F /  -1.5 °C 30.34in /  1027.3hPa Calm   3.0mph /  4.8km/h 42% 0.00in /  0mm 0.0 W/m2
17:09 51.4 °F /  10.8 °C 29.1 °F /  -1.6 °C 30.34in /  1027.3hPa East 2.0mph /  3.2km/h 2.0mph /  3.2km/h 42% 0.00in /  0mm 0.0 W/m2
17:15 51.4 °F /  10.8 °C 29.7 °F /  -1.3 °C 30.34in /  1027.3hPa Calm     43% 0.00in /  0mm 0.0 W/m2
17:17 51.4 °F /  10.8 °C 29.1 °F /  -1.6 °C 30.34in /  1027.3hPa Calm   1.0mph /  1.6km/h 42% 0.00in /  0mm 0.0 W/m2
17:23 51.4 °F /  10.8 °C 29.1 °F /  -1.6 °C 30.34in /  1027.3hPa ESE 0.9mph /  1.4km/h 4.0mph /  6.4km/h 42% 0.00in /  0mm 0.0 W/m2
17:29 51.4 °F /  10.8 °C 29.7 °F /  -1.3 °C 30.34in /  1027.3hPa Calm   3.0mph /  4.8km/h 43% 0.00in /  0mm 0.0 W/m2
17:35 51.4 °F /  10.8 °C 29.1 °F /  -1.6 °C 30.34in /  1027.3hPa Calm   4.0mph /  6.4km/h 42% 0.00in /  0mm 0.0 W/m2
17:41 51.4 °F /  10.8 °C 29.1 °F /  -1.6 °C 30.34in /  1027.3hPa Calm   4.0mph /  6.4km/h 42% 0.00in /  0mm 0.0 W/m2
17:47 51.4 °F /  10.8 °C 29.1 °F /  -1.6 °C 30.34in /  1027.3hPa Calm   1.0mph /  1.6km/h 42% 0.00in /  0mm 0.0 W/m2
17:53 51.4 °F /  10.8 °C 29.7 °F /  -1.3 °C 30.34in /  1027.3hPa Calm   1.0mph /  1.6km/h 43% 0.00in /  0mm 0.0 W/m2
17:59 51.4 °F /  10.8 °C 29.7 °F /  -1.3 °C 30.35in /  1027.7hPa Calm   1.0mph /  1.6km/h 43% 0.00in /  0mm 0.0 W/m2
18:05 51.3 °F /  10.7 °C 29.5 °F /  -1.4 °C 30.35in /  1027.7hPa ENE 0.9mph /  1.4km/h 1.0mph /  1.6km/h 43% 0.00in /  0mm 0.0 W/m2
18:12 51.1 °F /  10.6 °C 29.3 °F /  -1.5 °C 30.34in /  1027.3hPa Calm   1.0mph /  1.6km/h 43% 0.00in /  0mm 0.0 W/m2
18:18 51.1 °F /  10.6 °C 29.8 °F /  -1.2 °C 30.34in /  1027.3hPa Calm   1.0mph /  1.6km/h 44% 0.00in /  0mm 0.0 W/m2
18:24 50.7 °F /  10.4 °C 29.7 °F /  -1.3 °C 30.34in /  1027.3hPa Calm   1.0mph /  1.6km/h 44% 0.00in /  0mm 0.0 W/m2
18:30 50.7 °F /  10.4 °C 29.7 °F /  -1.3 °C 30.34in /  1027.3hPa Calm   2.0mph /  3.2km/h 44% 0.00in /  0mm 0.0 W/m2
18:36 50.7 °F /  10.4 °C 29.7 °F /  -1.3 °C 30.34in /  1027.3hPa Calm     44% 0.00in /  0mm 0.0 W/m2
18:42 50.5 °F /  10.3 °C 30.0 °F /  -1.1 °C 30.34in /  1027.3hPa Calm     45% 0.00in /  0mm 0.0 W/m2
18:48 50.4 °F /  10.2 °C 29.8 °F /  -1.2 °C 30.34in /  1027.3hPa Calm   1.0mph /  1.6km/h 45% 0.00in /  0mm 0.0 W/m2
18:54 50.2 °F /  10.1 °C 29.7 °F /  -1.3 °C 30.34in /  1027.3hPa Calm     45% 0.00in /  0mm 0.0 W/m2
19:01 50.2 °F /  10.1 °C 29.7 °F /  -1.3 °C 30.34in /  1027.3hPa Calm     45% 0.00in /  0mm 0.0 W/m2
19:07 50.0 °F /  10 °C 29.5 °F /  -1.4 °C 30.34in /  1027.3hPa Calm     45% 0.00in /  0mm 0.0 W/m2
19:13 49.8 °F /  9.9 °C 29.8 °F /  -1.2 °C 30.34in /  1027.3hPa Calm     46% 0.00in /  0mm 0.0 W/m2
19:19 49.6 °F /  9.8 °C 29.7 °F /  -1.3 °C 30.34in /  1027.3hPa Calm   1.0mph /  1.6km/h 46% 0.00in /  0mm 0.0 W/m2
19:25 49.5 °F /  9.7 °C 29.5 °F /  -1.4 °C 30.34in /  1027.3hPa Calm     46% 0.00in /  0mm 0.0 W/m2
19:31 49.5 °F /  9.7 °C 29.5 °F /  -1.4 °C 30.34in /  1027.3hPa Calm   1.0mph /  1.6km/h 46% 0.00in /  0mm 0.0 W/m2
19:37 49.5 °F /  9.7 °C 29.5 °F /  -1.4 °C 30.34in /  1027.3hPa Calm     46% 0.00in /  0mm 0.0 W/m2
19:44 49.3 °F /  9.6 °C 29.3 °F /  -1.5 °C 30.34in /  1027.3hPa Calm     46% 0.00in /  0mm 0.0 W/m2
19:50 49.1 °F /  9.5 °C 29.7 °F /  -1.3 °C 30.34in /  1027.3hPa Calm     47% 0.00in /  0mm 0.0 W/m2
19:56 48.9 °F /  9.4 °C 29.7 °F /  -1.3 °C 30.34in /  1027.3hPa Calm   2.0mph /  3.2km/h 47% 0.00in /  0mm 0.0 W/m2
20:02 48.9 °F /  9.4 °C 29.7 °F /  -1.3 °C 30.34in /  1027.3hPa Calm   2.0mph /  3.2km/h 47% 0.00in /  0mm 0.0 W/m2
20:08 48.9 °F /  9.4 °C 29.7 °F /  -1.3 °C 30.34in /  1027.3hPa Calm   1.0mph /  1.6km/h 47% 0.00in /  0mm 0.0 W/m2
20:14 48.7 °F /  9.3 °C 29.5 °F /  -1.4 °C 30.34in /  1027.3hPa Calm     47% 0.00in /  0mm 0.0 W/m2
20:20 48.7 °F /  9.3 °C 29.8 °F /  -1.2 °C 30.34in /  1027.3hPa Calm     48% 0.00in /  0mm 0.0 W/m2
20:27 48.6 °F /  9.2 °C 29.8 °F /  -1.2 °C 30.34in /  1027.3hPa Calm   1.0mph /  1.6km/h 48% 0.00in /  0mm 0.0 W/m2
20:33 48.6 °F /  9.2 °C 29.8 °F /  -1.2 °C 30.34in /  1027.3hPa Calm   4.0mph /  6.4km/h 48% 0.00in /  0mm 0.0 W/m2
20:39 48.6 °F /  9.2 °C 29.8 °F /  -1.2 °C 30.33in /  1027hPa Calm     48% 0.00in /  0mm 0.0 W/m2
20:45 48.6 °F /  9.2 °C 29.8 °F /  -1.2 °C 30.33in /  1027hPa Calm     48% 0.00in /  0mm 0.0 W/m2
20:51 48.4 °F /  9.1 °C 29.7 °F /  -1.3 °C 30.33in /  1027hPa Calm     48% 0.00in /  0mm 0.0 W/m2
20:57 48.4 °F /  9.1 °C 29.7 °F /  -1.3 °C 30.33in /  1027hPa Calm     48% 0.00in /  0mm 0.0 W/m2
21:04 48.2 °F /  9 °C 30.0 °F /  -1.1 °C 30.33in /  1027hPa Calm   3.0mph /  4.8km/h 49% 0.00in /  0mm 0.0 W/m2
21:10 48.0 °F /  8.9 °C 29.8 °F /  -1.2 °C 30.32in /  1026.6hPa Calm   2.0mph /  3.2km/h 49% 0.00in /  0mm 0.0 W/m2
21:16 48.0 °F /  8.9 °C 29.8 °F /  -1.2 °C 30.32in /  1026.6hPa Calm     49% 0.00in /  0mm 0.0 W/m2
21:22 47.8 °F /  8.8 °C 30.0 °F /  -1.1 °C 30.33in /  1027hPa Calm     50% 0.00in /  0mm 0.0 W/m2
21:28 47.7 °F /  8.7 °C 30.0 °F /  -1.1 °C 30.32in /  1026.6hPa SE 2.9mph /  4.7km/h 4.0mph /  6.4km/h 50% 0.00in /  0mm 0.0 W/m2
21:34 47.5 °F /  8.6 °C 29.8 °F /  -1.2 °C 30.32in /  1026.6hPa Calm     50% 0.00in /  0mm 0.0 W/m2
21:40 47.5 °F /  8.6 °C 29.8 °F /  -1.2 °C 30.32in /  1026.6hPa Calm   3.0mph /  4.8km/h 50% 0.00in /  0mm 0.0 W/m2
21:47 47.5 °F /  8.6 °C 30.2 °F /  -1 °C 30.32in /  1026.6hPa Calm     51% 0.00in /  0mm 0.0 W/m2
21:53 47.3 °F /  8.5 °C 30.0 °F /  -1.1 °C 30.32in /  1026.6hPa Calm     51% 0.00in /  0mm 0.0 W/m2
21:59 47.3 °F /  8.5 °C 30.0 °F /  -1.1 °C 30.32in /  1026.6hPa ESE 0.9mph /  1.4km/h 4.0mph /  6.4km/h 51% 0.00in /  0mm 0.0 W/m2
22:05 47.3 °F /  8.5 °C 30.6 °F /  -0.8 °C 30.32in /  1026.6hPa Calm     52% 0.00in /  0mm 0.0 W/m2
22:11 47.3 °F /  8.5 °C 30.6 °F /  -0.8 °C 30.32in /  1026.6hPa Calm     52% 0.00in /  0mm 0.0 W/m2
22:17 47.1 °F /  8.4 °C 30.4 °F /  -0.9 °C 30.32in /  1026.6hPa Calm   2.0mph /  3.2km/h 52% 0.00in /  0mm 0.0 W/m2
22:24 47.1 °F /  8.4 °C 30.4 °F /  -0.9 °C 30.32in /  1026.6hPa Calm     52% 0.00in /  0mm 0.0 W/m2
22:30 47.1 °F /  8.4 °C 30.4 °F /  -0.9 °C 30.32in /  1026.6hPa Calm     52% 0.00in /  0mm 0.0 W/m2
22:36 47.1 °F /  8.4 °C 30.4 °F /  -0.9 °C 30.31in /  1026.3hPa Calm   1.0mph /  1.6km/h 52% 0.00in /  0mm 0.0 W/m2
22:42 46.9 °F /  8.3 °C 30.2 °F /  -1 °C 30.31in /  1026.3hPa Calm   1.0mph /  1.6km/h 52% 0.00in /  0mm 0.0 W/m2
22:48 46.9 °F /  8.3 °C 30.2 °F /  -1 °C 30.31in /  1026.3hPa Calm   2.0mph /  3.2km/h 52% 0.00in /  0mm 0.0 W/m2
22:54 46.8 °F /  8.2 °C 30.6 °F /  -0.8 °C 30.31in /  1026.3hPa Calm     53% 0.00in /  0mm 0.0 W/m2
23:00 46.6 °F /  8.1 °C 30.4 °F /  -0.9 °C 30.31in /  1026.3hPa Calm   3.0mph /  4.8km/h 53% 0.00in /  0mm 0.0 W/m2
23:07 46.6 °F /  8.1 °C 30.4 °F /  -0.9 °C 30.31in /  1026.3hPa Calm     53% 0.00in /  0mm 0.0 W/m2
23:13 46.6 °F /  8.1 °C 30.4 °F /  -0.9 °C 30.31in /  1026.3hPa Calm     53% 0.00in /  0mm 0.0 W/m2
23:19 46.6 °F /  8.1 °C 30.4 °F /  -0.9 °C 30.31in /  1026.3hPa Calm   5.0mph /  8km/h 53% 0.00in /  0mm 0.0 W/m2
23:25 46.6 °F /  8.1 °C 30.4 °F /  -0.9 °C 30.31in /  1026.3hPa Calm   1.0mph /  1.6km/h 53% 0.00in /  0mm 0.0 W/m2
23:31 46.6 °F /  8.1 °C 30.4 °F /  -0.9 °C 30.31in /  1026.3hPa Calm   1.0mph /  1.6km/h 53% 0.00in /  0mm 0.0 W/m2
23:37 46.6 °F /  8.1 °C 30.4 °F /  -0.9 °C 30.31in /  1026.3hPa Calm     53% 0.00in /  0mm 0.0 W/m2
23:43 46.6 °F /  8.1 °C 30.7 °F /  -0.7 °C 30.31in /  1026.3hPa Calm   1.0mph /  1.6km/h 54% 0.00in /  0mm 0.0 W/m2
23:50 46.6 °F /  8.1 °C 30.4 °F /  -0.9 °C 30.31in /  1026.3hPa Calm     53% 0.00in /  0mm 0.0 W/m2
23:56 46.6 °F /  8.1 °C 30.7 °F /  -0.7 °C 30.31in /  1026.3hPa Calm     54% 0.00in /  0mm 0.0 W/m2
Olympia, Windhoek, Namibia
Compliments of Weather Underground - 3 mb